Time;durP1;ratioP1;P1;durP2;ratioP2;P2;SDS_P1;SDS_P2;PMS_P1;PMS_P2;Temp;Humidity;BMP_temperature;BMP_pressure;BME280_temperature;BME280_humidity;BME280_pressure;Samples;Min_cycle;Max_cycle;Signal;HPM_P1;HPM_P2
2023/02/20 00:00:11;;;;;;;9.20;6.27;;;4.80;99.90;;;;;;5034926;28;20467;-62
2023/02/20 00:02:38;;;;;;;9.60;6.27;;;4.80;99.90;;;;;;5038848;27;20470;-62
2023/02/20 00:05:07;;;;;;;9.80;7.37;;;4.80;99.90;;;;;;5035579;28;20459;-61
2023/02/20 00:07:34;;;;;;;11.60;8.23;;;4.80;99.90;;;;;;5035714;28;20468;-62
2023/02/20 00:10:01;;;;;;;10.00;7.63;;;4.80;99.90;;;;;;5039015;27;20892;-62
2023/02/20 00:12:28;;;;;;;15.60;9.53;;;4.80;99.90;;;;;;5044274;27;20481;-62
2023/02/20 00:14:55;;;;;;;19.03;12.07;;;4.80;99.90;;;;;;5140729;27;20469;-62
2023/02/20 00:17:23;;;;;;;16.17;10.40;;;4.90;99.90;;;;;;5055632;27;20860;-64
2023/02/20 00:19:50;;;;;;;16.90;11.80;;;4.90;99.90;;;;;;5035030;28;20558;-62
2023/02/20 00:22:21;;;;;;;18.30;11.10;;;4.90;99.90;;;;;;5035414;28;20463;-62
2023/02/20 00:24:48;;;;;;;21.30;11.10;;;4.90;99.90;;;;;;5035668;28;20463;-62
2023/02/20 00:27:15;;;;;;;19.10;12.20;;;4.90;99.90;;;;;;5035857;28;20954;-62
2023/02/20 00:29:44;;;;;;;18.83;11.70;;;5.00;99.90;;;;;;5034996;28;20463;-62
2023/02/20 00:32:11;;;;;;;16.67;12.03;;;5.10;99.90;;;;;;5035904;28;20458;-62
2023/02/20 00:34:39;;;;;;;21.00;11.67;;;5.10;99.90;;;;;;5033653;28;20503;-62
2023/02/20 00:37:06;;;;;;;17.70;11.23;;;5.10;99.90;;;;;;5034706;28;20471;-62
2023/02/20 00:39:34;;;;;;;23.53;13.03;;;5.10;99.90;;;;;;5034867;28;20502;-62
2023/02/20 00:42:02;;;;;;;18.43;11.93;;;5.10;99.90;;;;;;5033086;28;20482;-62
2023/02/20 00:44:29;;;;;;;19.50;11.50;;;5.20;99.90;;;;;;5033802;28;20463;-62
2023/02/20 00:46:56;;;;;;;17.30;11.60;;;5.10;99.90;;;;;;5030496;28;20808;-62
2023/02/20 00:49:23;;;;;;;18.80;12.60;;;5.10;99.90;;;;;;5035537;28;20455;-62
2023/02/20 00:51:50;;;;;;;19.90;13.83;;;5.20;99.90;;;;;;5034318;28;20471;-62
2023/02/20 00:54:18;;;;;;;20.23;12.10;;;5.30;99.90;;;;;;5034394;28;20782;-61
2023/02/20 00:56:48;;;;;;;26.47;14.10;;;5.40;99.90;;;;;;5034776;28;20471;-62
2023/02/20 00:59:15;;;;;;;20.20;14.03;;;5.50;99.90;;;;;;5034246;28;20499;-62
2023/02/20 01:01:42;;;;;;;19.00;11.93;;;5.50;99.90;;;;;;5034404;28;20499;-61
2023/02/20 01:04:10;;;;;;;20.70;13.23;;;5.40;99.90;;;;;;5034499;28;20769;-62
2023/02/20 01:06:52;;;;;;;23.63;13.10;;;5.50;99.90;;;;;;5094292;27;20544;-63
2023/02/20 01:09:19;;;;;;;19.47;13.93;;;5.50;99.90;;;;;;5095113;28;20431;-63
2023/02/20 01:11:46;;;;;;;22.00;13.57;;;5.50;99.90;;;;;;5093903;28;20963;-63
2023/02/20 01:14:14;;;;;;;17.90;12.30;;;5.60;99.90;;;;;;5092585;28;20476;-63
2023/02/20 01:16:45;;;;;;;18.67;13.10;;;5.50;99.90;;;;;;5094207;28;20744;-63
2023/02/20 01:19:12;;;;;;;20.03;13.13;;;5.60;99.90;;;;;;5089700;28;20435;-63
2023/02/20 01:21:39;;;;;;;21.17;12.90;;;5.60;99.90;;;;;;5094272;28;20456;-63
2023/02/20 01:24:08;;;;;;;20.10;13.03;;;5.50;99.90;;;;;;5093246;28;20460;-63
2023/02/20 01:26:36;;;;;;;19.83;12.40;;;5.50;99.90;;;;;;5073799;28;20587;-63
2023/02/20 01:29:03;;;;;;;22.50;12.97;;;5.50;99.90;;;;;;5072423;28;20465;-63
2023/02/20 01:31:30;;;;;;;18.87;13.60;;;5.40;99.90;;;;;;5072711;28;20436;-63
2023/02/20 01:33:57;;;;;;;23.43;13.80;;;5.40;99.90;;;;;;5084022;28;20471;-62
2023/02/20 01:36:26;;;;;;;23.97;15.60;;;5.40;99.90;;;;;;5092959;28;20461;-62
2023/02/20 01:38:53;;;;;;;23.03;14.93;;;5.40;99.90;;;;;;5092897;28;20476;-63
2023/02/20 01:41:23;;;;;;;21.83;14.40;;;5.40;99.90;;;;;;5091500;28;20473;-63
2023/02/20 01:43:50;;;;;;;16.67;12.00;;;5.40;99.90;;;;;;5092532;28;20753;-62
2023/02/20 01:46:48;;;;;;;21.63;14.77;;;5.30;99.90;;;;;;5092894;28;20492;-62
2023/02/20 01:49:20;;;;;;;21.93;13.60;;;5.30;99.90;;;;;;5093274;28;20523;-61
2023/02/20 01:51:52;;;;;;;19.10;13.17;;;5.30;99.90;;;;;;5093322;28;20461;-62
2023/02/20 01:54:23;;;;;;;24.17;15.53;;;5.30;99.90;;;;;;5093317;28;20468;-62
2023/02/20 01:56:53;;;;;;;23.33;15.83;;;5.30;99.90;;;;;;5093516;28;20456;-62
2023/02/20 01:59:23;;;;;;;20.27;14.77;;;5.30;99.90;;;;;;5093893;28;20464;-63
2023/02/20 02:01:51;;;;;;;22.60;14.77;;;5.30;99.90;;;;;;5093518;28;20899;-61
2023/02/20 02:04:18;;;;;;;20.90;14.70;;;5.30;99.90;;;;;;5093265;28;20467;-63
2023/02/20 02:06:51;;;;;;;22.10;15.13;;;5.30;99.90;;;;;;5092525;28;20492;-61
2023/02/20 02:09:25;;;;;;;24.17;15.57;;;5.30;99.90;;;;;;5092581;28;20472;-61
2023/02/20 02:11:54;;;;;;;24.43;14.70;;;5.20;99.90;;;;;;5092130;28;20507;-63
2023/02/20 02:14:21;;;;;;;20.13;14.07;;;5.20;99.90;;;;;;5093346;28;20500;-63
2023/02/20 02:17:10;;;;;;;22.23;13.87;;;5.20;99.90;;;;;;5087057;28;20775;-62
2023/02/20 02:20:07;;;;;;;24.43;14.43;;;5.20;99.90;;;;;;5079860;28;20439;-61
2023/02/20 02:23:01;;;;;;;20.27;14.17;;;5.10;99.90;;;;;;5078946;28;20555;-61
2023/02/20 02:25:47;;;;;;;30.13;15.87;;;5.10;99.90;;;;;;5044708;28;20579;-62
2023/02/20 02:28:51;;;;;;;23.97;14.03;;;5.10;99.90;;;;;;5059115;28;20883;-63
2023/02/20 02:31:45;;;;;;;24.63;14.93;;;5.10;99.90;;;;;;5072883;28;20526;-63
2023/02/20 02:34:38;;;;;;;20.83;14.27;;;5.00;99.90;;;;;;5079343;28;20467;-63
2023/02/20 02:37:17;;;;;;;19.00;13.97;;;5.00;99.90;;;;;;5078918;28;20453;-62
2023/02/20 02:39:50;;;;;;;22.37;15.17;;;5.00;99.90;;;;;;5079398;28;20515;-59
2023/02/20 02:42:24;;;;;;;23.70;15.27;;;5.00;99.90;;;;;;5078542;28;20469;-62
2023/02/20 02:44:57;;;;;;;19.40;14.00;;;5.00;99.90;;;;;;5079043;28;20461;-62
2023/02/20 02:47:31;;;;;;;23.33;14.80;;;5.10;99.90;;;;;;5079635;28;20511;-62
2023/02/20 02:50:04;;;;;;;21.70;15.13;;;5.10;99.90;;;;;;5077233;28;20479;-63
2023/02/20 02:52:47;;;;;;;21.63;14.83;;;5.10;99.90;;;;;;5077667;28;20483;-63
2023/02/20 02:55:18;;;;;;;23.23;14.90;;;5.10;99.90;;;;;;5079388;28;20567;-61
2023/02/20 02:57:45;;;;;;;31.77;16.60;;;5.00;99.90;;;;;;5078893;28;20756;-63
2023/02/20 03:00:16;;;;;;;23.87;15.30;;;5.10;99.90;;;;;;5079328;28;20488;-62
2023/02/20 03:02:50;;;;;;;24.13;15.53;;;5.10;99.90;;;;;;5078304;28;20560;-62
2023/02/20 03:05:22;;;;;;;26.77;16.10;;;5.10;99.90;;;;;;5078853;28;20542;-63
2023/02/20 03:07:53;;;;;;;29.03;14.60;;;5.00;99.90;;;;;;5078067;28;20465;-60
2023/02/20 03:10:30;;;;;;;20.40;14.63;;;5.00;99.90;;;;;;5072637;28;20458;-61
2023/02/20 03:13:04;;;;;;;21.63;14.90;;;5.00;99.90;;;;;;5074988;28;20477;-60
2023/02/20 03:15:34;;;;;;;24.70;15.27;;;5.00;99.90;;;;;;5077417;28;20465;-61
2023/02/20 03:18:14;;;;;;;24.23;15.50;;;5.00;99.90;;;;;;5078966;28;20458;-62
2023/02/20 03:20:45;;;;;;;22.73;15.83;;;5.00;99.90;;;;;;5078909;28;20512;-61
2023/02/20 03:23:18;;;;;;;19.63;14.53;;;5.00;99.90;;;;;;5078189;28;20760;-61
2023/02/20 03:25:50;;;;;;;20.80;12.90;;;5.00;99.90;;;;;;5077935;28;20488;-62
2023/02/20 03:28:21;;;;;;;21.03;14.80;;;5.00;99.90;;;;;;5077554;28;20461;-61
2023/02/20 03:30:53;;;;;;;22.27;15.77;;;5.00;99.90;;;;;;5078631;28;20466;-62
2023/02/20 03:44:34;;;;;;;28.27;16.20;;;5.10;99.90;;;;;;5070256;28;21076;-60
2023/02/20 03:47:03;;;;;;;21.87;15.20;;;5.10;99.90;;;;;;5077896;28;20511;-62
2023/02/20 03:49:35;;;;;;;25.60;15.23;;;5.20;99.90;;;;;;5077087;28;20473;-62
2023/02/20 03:52:03;;;;;;;23.77;14.40;;;5.20;99.90;;;;;;5077807;28;20465;-62
2023/02/20 03:54:33;;;;;;;25.20;15.93;;;5.10;99.90;;;;;;5077407;28;20461;-60
2023/02/20 03:57:05;;;;;;;28.60;17.17;;;5.10;99.90;;;;;;5078111;28;20457;-61
2023/02/20 03:59:37;;;;;;;27.83;15.90;;;5.10;99.90;;;;;;5077404;28;20467;-61
2023/02/20 04:02:08;;;;;;;24.73;15.53;;;5.10;99.90;;;;;;5077721;28;20465;-62
2023/02/20 04:04:38;;;;;;;26.50;15.07;;;5.10;99.90;;;;;;5077182;28;20435;-61
2023/02/20 04:07:09;;;;;;;23.17;13.90;;;5.00;99.90;;;;;;5077203;28;20481;-62
2023/02/20 04:09:44;;;;;;;25.63;15.97;;;5.00;99.90;;;;;;5077067;28;20961;-62
2023/02/20 04:12:16;;;;;;;23.40;14.10;;;4.90;99.90;;;;;;5057501;28;20568;-62
2023/02/20 04:14:46;;;;;;;21.73;14.57;;;4.90;99.90;;;;;;5057527;28;20457;-61
2023/02/20 04:17:17;;;;;;;24.57;14.73;;;4.90;99.90;;;;;;5074737;28;20464;-61
2023/02/20 04:19:44;;;;;;;21.20;12.10;;;5.00;99.90;;;;;;5077259;28;20457;-61
2023/02/20 04:22:17;;;;;;;24.20;13.20;;;4.90;99.90;;;;;;5077240;28;20457;-61
2023/02/20 04:24:50;;;;;;;20.50;13.10;;;4.90;99.90;;;;;;5077538;28;20733;-61
2023/02/20 04:27:18;;;;;;;25.93;14.70;;;5.00;99.90;;;;;;5077587;28;20544;-62
2023/02/20 04:29:45;;;;;;;22.10;12.73;;;5.00;99.90;;;;;;5077243;28;20462;-59
2023/02/20 04:32:13;;;;;;;21.13;12.40;;;5.00;99.90;;;;;;5076443;28;20461;-62
2023/02/20 04:34:40;;;;;;;18.43;11.27;;;5.00;99.90;;;;;;5076329;28;20466;-61
2023/02/20 04:37:10;;;;;;;20.07;13.47;;;5.00;99.90;;;;;;5074827;28;20469;-62
2023/02/20 04:39:37;;;;;;;18.20;11.60;;;5.00;99.90;;;;;;5076235;28;20477;-62
2023/02/20 04:42:06;;;;;;;23.00;13.50;;;4.90;99.90;;;;;;5076335;28;20461;-62
2023/02/20 04:44:34;;;;;;;19.27;13.13;;;4.90;99.90;;;;;;5076268;28;20467;-61
2023/02/20 04:47:03;;;;;;;25.20;13.13;;;4.90;99.90;;;;;;5077474;28;20972;-61
2023/02/20 04:49:30;;;;;;;21.10;11.43;;;4.90;99.90;;;;;;5077538;28;20892;-61
2023/02/20 04:51:57;;;;;;;22.10;12.87;;;4.90;99.90;;;;;;5075472;28;20463;-61
2023/02/20 04:54:25;;;;;;;18.67;11.83;;;4.80;99.90;;;;;;5076853;28;20461;-62
2023/02/20 04:56:52;;;;;;;20.27;12.23;;;4.80;99.90;;;;;;5076633;28;20467;-62
2023/02/20 04:59:21;;;;;;;17.90;11.37;;;4.80;99.90;;;;;;5077126;28;20894;-61
2023/02/20 05:01:50;;;;;;;20.57;12.87;;;4.90;99.90;;;;;;5073502;28;20469;-61
2023/02/20 05:04:18;;;;;;;20.37;12.83;;;4.80;99.90;;;;;;5075723;28;20470;-62
2023/02/20 05:06:47;;;;;;;20.30;12.17;;;4.90;99.90;;;;;;5076451;28;20491;-61
2023/02/20 05:09:14;;;;;;;17.40;10.63;;;4.80;99.90;;;;;;5077366;28;20484;-63
2023/02/20 05:11:42;;;;;;;19.83;11.73;;;4.80;99.90;;;;;;5076699;28;20849;-62
2023/02/20 05:14:09;;;;;;;17.97;11.83;;;4.80;99.90;;;;;;5076101;28;20465;-61
2023/02/20 05:16:39;;;;;;;22.93;11.67;;;4.80;99.90;;;;;;5075933;28;20900;-60
2023/02/20 05:19:08;;;;;;;19.97;11.30;;;4.80;99.90;;;;;;5075005;28;20479;-63
2023/02/20 05:24:20;;;;;;;17.40;11.43;;;4.90;99.90;;;;;;5075817;28;20523;-61
2023/02/20 05:26:47;;;;;;;19.23;11.00;;;4.80;99.90;;;;;;5076605;28;20485;-61
2023/02/20 05:29:14;;;;;;;18.53;11.07;;;4.80;99.90;;;;;;5076871;28;20461;-62
2023/02/20 05:31:43;;;;;;;20.27;11.30;;;4.80;99.90;;;;;;5076837;28;20461;-60
2023/02/20 05:34:10;;;;;;;19.57;11.00;;;4.80;99.90;;;;;;5076290;28;20465;-62
2023/02/20 05:36:37;;;;;;;18.30;11.00;;;4.80;99.90;;;;;;5075444;28;20916;-62
2023/02/20 05:39:05;;;;;;;17.67;10.93;;;4.80;99.90;;;;;;5076637;28;20464;-61
2023/02/20 05:41:32;;;;;;;14.37;9.20;;;4.80;99.90;;;;;;5076848;28;20465;-61
2023/02/20 05:44:00;;;;;;;17.57;9.83;;;4.80;99.90;;;;;;5076334;28;20483;-61
2023/02/20 05:46:27;;;;;;;16.53;10.80;;;4.90;99.90;;;;;;5074898;28;20481;-63
2023/02/20 05:48:56;;;;;;;21.10;10.77;;;4.80;99.90;;;;;;5076805;28;20959;-61
2023/02/20 05:51:25;;;;;;;12.50;8.60;;;4.80;99.90;;;;;;5076590;28;20471;-62
2023/02/20 05:53:53;;;;;;;15.37;9.70;;;4.80;99.90;;;;;;5073617;28;20463;-62
2023/02/20 05:56:20;;;;;;;17.87;10.20;;;4.80;99.90;;;;;;5076783;28;20773;-62
2023/02/20 05:58:48;;;;;;;17.97;9.90;;;4.80;99.90;;;;;;5075987;28;20479;-61
2023/02/20 06:01:20;;;;;;;17.87;9.97;;;4.80;99.90;;;;;;5077477;28;20461;-59
2023/02/20 06:03:47;;;;;;;17.60;9.90;;;4.80;99.90;;;;;;5077444;28;20780;-62
2023/02/20 06:06:16;;;;;;;16.07;9.37;;;4.80;99.90;;;;;;5077448;28;20488;-58
2023/02/20 06:08:44;;;;;;;14.13;9.00;;;4.80;99.90;;;;;;5078831;28;20500;-62
2023/02/20 06:11:12;;;;;;;15.77;9.40;;;4.90;99.90;;;;;;5078756;28;20475;-60
2023/02/20 06:13:41;;;;;;;15.30;10.27;;;4.90;99.90;;;;;;5079779;28;20563;-62
2023/02/20 06:16:09;;;;;;;12.90;8.90;;;4.90;99.90;;;;;;5077578;28;20515;-62
2023/02/20 06:18:39;;;;;;;15.07;8.70;;;4.90;99.90;;;;;;5075819;28;20461;-61
2023/02/20 06:21:08;;;;;;;15.30;8.60;;;4.90;99.90;;;;;;5076409;28;20461;-62
2023/02/20 06:23:38;;;;;;;19.57;8.90;;;4.90;99.90;;;;;;5077576;28;20743;-62
2023/02/20 06:26:06;;;;;;;15.97;7.90;;;5.00;99.90;;;;;;5076925;28;20936;-61
2023/02/20 06:28:34;;;;;;;13.13;8.20;;;5.00;99.90;;;;;;5075746;28;20787;-61
2023/02/20 06:31:01;;;;;;;18.60;8.27;;;5.00;99.90;;;;;;5075610;28;20474;-60
2023/02/20 06:33:29;;;;;;;13.13;8.70;;;5.10;99.90;;;;;;5080009;28;20465;-61
2023/02/20 06:35:56;;;;;;;13.83;9.33;;;5.10;99.90;;;;;;5078631;28;20901;-61
2023/02/20 06:38:23;;;;;;;14.67;8.07;;;5.10;99.90;;;;;;5077552;28;20454;-59
2023/02/20 06:40:52;;;;;;;12.87;8.70;;;5.20;99.90;;;;;;5077621;28;20906;-62
2023/02/20 06:43:20;;;;;;;15.97;9.63;;;5.20;99.90;;;;;;5077971;28;20488;-62
2023/02/20 06:45:47;;;;;;;14.83;9.57;;;5.20;99.90;;;;;;5079417;28;20471;-62
2023/02/20 06:48:15;;;;;;;15.93;8.83;;;5.30;99.90;;;;;;5078841;28;20499;-60
2023/02/20 06:50:42;;;;;;;18.80;8.83;;;5.30;99.90;;;;;;5079230;28;20472;-60
2023/02/20 06:53:09;;;;;;;16.27;10.00;;;5.30;99.90;;;;;;5078057;28;20481;-62
2023/02/20 06:55:37;;;;;;;12.63;9.37;;;5.30;99.90;;;;;;5079207;28;20461;-59
2023/02/20 06:58:05;;;;;;;18.00;9.87;;;5.40;99.90;;;;;;5075960;28;20882;-60
2023/02/20 07:00:32;;;;;;;13.40;9.90;;;5.40;99.90;;;;;;5077533;28;20461;-62
2023/02/20 07:02:59;;;;;;;20.60;10.70;;;5.40;99.90;;;;;;5078240;28;20595;-62
2023/02/20 07:05:28;;;;;;;18.00;9.27;;;5.50;99.90;;;;;;5078431;28;20524;-60
2023/02/20 07:07:55;;;;;;;17.53;11.10;;;5.50;99.90;;;;;;5077085;28;20493;-60
2023/02/20 07:10:22;;;;;;;14.57;11.83;;;5.50;99.90;;;;;;5077147;28;20477;-61
2023/02/20 07:12:49;;;;;;;17.50;13.90;;;5.50;99.90;;;;;;5078059;28;20480;-62
2023/02/20 07:15:18;;;;;;;16.47;13.97;;;5.40;99.90;;;;;;5078286;28;20479;-62
2023/02/20 07:17:45;;;;;;;15.47;12.80;;;5.30;99.90;;;;;;5078716;28;20480;-63
2023/02/20 07:20:12;;;;;;;18.23;13.93;;;5.40;99.90;;;;;;5078526;28;20457;-62
2023/02/20 07:22:39;;;;;;;24.50;14.03;;;5.30;99.90;;;;;;5077464;28;20471;-61
2023/02/20 07:25:07;;;;;;;21.43;13.57;;;5.30;99.90;;;;;;5077137;28;20936;-62
2023/02/20 07:27:34;;;;;;;18.80;14.80;;;5.30;99.90;;;;;;5078284;28;20481;-60
2023/02/20 07:30:01;;;;;;;20.83;14.30;;;5.20;99.90;;;;;;5077935;28;20477;-58
2023/02/20 07:32:30;;;;;;;19.53;13.40;;;5.20;99.90;;;;;;5078734;28;20462;-62
2023/02/20 07:34:57;;;;;;;18.97;15.10;;;5.20;99.90;;;;;;5077571;28;20461;-61
2023/02/20 07:37:24;;;;;;;18.23;14.50;;;5.10;99.90;;;;;;5078571;28;20464;-61
2023/02/20 07:39:51;;;;;;;19.83;13.13;;;5.10;99.90;;;;;;5078061;28;20471;-62
2023/02/20 07:42:18;;;;;;;19.97;14.50;;;5.10;99.90;;;;;;5078074;28;20476;-60
2023/02/20 07:44:47;;;;;;;18.07;14.07;;;5.10;99.90;;;;;;5077715;28;20890;-62
2023/02/20 07:47:14;;;;;;;24.23;13.40;;;5.10;99.90;;;;;;5076834;28;20485;-61
2023/02/20 07:49:43;;;;;;;19.00;14.03;;;5.10;99.90;;;;;;5077607;28;20515;-61
2023/02/20 07:52:11;;;;;;;18.13;14.13;;;5.10;99.90;;;;;;5076909;28;20898;-62
2023/02/20 07:54:38;;;;;;;18.83;14.13;;;5.10;99.90;;;;;;5077630;28;20468;-63
2023/02/20 07:57:05;;;;;;;18.93;14.10;;;5.10;99.90;;;;;;5076864;28;20476;-61
2023/02/20 07:59:32;;;;;;;22.27;15.03;;;5.10;99.90;;;;;;5077768;28;20461;-61
2023/02/20 08:01:59;;;;;;;21.40;14.90;;;5.10;99.90;;;;;;5077778;28;20753;-59
2023/02/20 08:04:27;;;;;;;19.83;14.00;;;5.10;99.90;;;;;;5078172;28;20461;-61
2023/02/20 08:06:55;;;;;;;19.23;15.80;;;5.10;99.90;;;;;;5076945;28;20489;-61
2023/02/20 08:09:22;;;;;;;22.77;14.97;;;5.10;99.90;;;;;;5077871;28;20465;-62
2023/02/20 08:11:50;;;;;;;19.43;13.90;;;5.10;99.90;;;;;;5077289;28;20764;-61
2023/02/20 08:14:17;;;;;;;23.60;16.23;;;5.20;99.90;;;;;;5077677;28;20544;-60
2023/02/20 08:16:44;;;;;;;19.90;14.97;;;5.20;99.90;;;;;;5077233;28;20918;-63
2023/02/20 08:19:11;;;;;;;25.30;15.50;;;5.20;99.90;;;;;;5077153;28;20458;-62
2023/02/20 08:21:39;;;;;;;20.10;15.43;;;5.20;99.90;;;;;;5077589;28;20465;-61
2023/02/20 08:24:08;;;;;;;23.97;15.90;;;5.30;99.90;;;;;;5076167;28;20468;-61
2023/02/20 08:26:35;;;;;;;22.20;16.57;;;5.30;99.90;;;;;;5076718;28;20461;-61
2023/02/20 08:29:02;;;;;;;21.67;16.57;;;5.50;99.90;;;;;;5076778;28;20480;-62
2023/02/20 08:31:29;;;;;;;19.83;13.60;;;5.40;99.90;;;;;;5075537;28;20464;-60
2023/02/20 08:33:56;;;;;;;18.07;14.87;;;5.40;99.90;;;;;;5075726;28;20755;-59
2023/02/20 08:36:23;;;;;;;18.30;14.70;;;5.40;99.90;;;;;;5075292;28;20457;-63
2023/02/20 08:38:51;;;;;;;19.50;14.67;;;5.40;99.90;;;;;;5075034;28;20457;-63
2023/02/20 08:41:19;;;;;;;19.47;14.70;;;5.50;99.90;;;;;;5075954;28;20492;-63
2023/02/20 08:43:47;;;;;;;17.83;14.00;;;5.50;99.90;;;;;;5073333;28;20789;-62
2023/02/20 08:46:14;;;;;;;17.00;14.07;;;5.40;99.90;;;;;;5074398;28;20456;-62
2023/02/20 08:48:41;;;;;;;23.13;14.37;;;5.40;99.90;;;;;;5074214;28;20492;-61
2023/02/20 08:51:09;;;;;;;22.33;16.47;;;5.40;99.90;;;;;;5074632;28;20472;-62
2023/02/20 08:53:38;;;;;;;22.23;14.93;;;5.40;99.90;;;;;;5077206;28;20480;-62
2023/02/20 08:56:06;;;;;;;22.93;16.77;;;5.40;99.90;;;;;;5074610;28;20472;-60
2023/02/20 08:58:34;;;;;;;23.50;16.63;;;5.40;99.90;;;;;;5076561;28;20463;-63
2023/02/20 09:01:02;;;;;;;23.87;16.47;;;5.40;99.90;;;;;;5076883;28;20465;-63
2023/02/20 09:03:29;;;;;;;22.90;16.20;;;5.40;99.90;;;;;;5074803;28;20909;-63
2023/02/20 09:05:56;;;;;;;22.50;16.80;;;5.50;99.90;;;;;;5074232;28;20511;-63
2023/02/20 09:08:23;;;;;;;23.33;18.60;;;5.60;99.90;;;;;;5072726;28;20507;-63
2023/02/20 09:10:50;;;;;;;26.20;17.73;;;5.60;99.90;;;;;;5073969;28;20770;-63
2023/02/20 09:13:17;;;;;;;22.60;16.43;;;5.50;99.90;;;;;;5071475;28;20567;-63
2023/02/20 09:15:46;;;;;;;25.43;18.00;;;5.50;99.90;;;;;;5075230;28;20467;-64
2023/02/20 09:18:14;;;;;;;25.30;17.60;;;5.50;99.90;;;;;;5074031;28;20554;-63
2023/02/20 09:20:42;;;;;;;28.67;20.00;;;5.50;99.90;;;;;;5074813;28;20458;-64
2023/02/20 09:23:10;;;;;;;25.60;17.43;;;5.50;99.90;;;;;;5072241;28;20488;-63
2023/02/20 09:25:37;;;;;;;24.07;18.90;;;5.60;99.90;;;;;;5074833;28;20497;-63
2023/02/20 09:28:05;;;;;;;29.87;21.50;;;5.60;99.90;;;;;;5077860;28;20489;-63
2023/02/20 09:30:32;;;;;;;25.23;19.60;;;5.70;99.90;;;;;;5078902;28;20457;-64
2023/02/20 09:33:00;;;;;;;32.27;20.57;;;5.80;99.90;;;;;;5073815;28;20551;-64
2023/02/20 09:35:30;;;;;;;25.93;19.50;;;5.70;99.90;;;;;;5079897;28;20465;-63
2023/02/20 09:37:57;;;;;;;26.73;20.53;;;5.60;99.90;;;;;;5080032;28;20457;-64
2023/02/20 09:40:26;;;;;;;26.10;19.20;;;5.70;99.90;;;;;;5080649;28;20464;-64
2023/02/20 09:43:06;;;;;;;24.83;19.90;;;5.70;99.90;;;;;;5080432;28;20465;-63
2023/02/20 09:45:38;;;;;;;29.53;20.90;;;5.60;99.90;;;;;;5079959;28;20830;-64
2023/02/20 09:48:19;;;;;;;29.63;20.87;;;5.70;99.90;;;;;;5080642;28;20499;-64
2023/02/20 09:50:52;;;;;;;26.40;19.40;;;5.60;99.90;;;;;;5080735;28;20461;-63
2023/02/20 09:53:26;;;;;;;30.00;20.93;;;5.70;99.90;;;;;;5080485;28;20461;-64
2023/02/20 09:55:55;;;;;;;22.83;18.47;;;5.70;99.90;;;;;;5079193;28;20457;-64
2023/02/20 09:58:38;;;;;;;33.23;19.10;;;5.70;99.90;;;;;;5080097;28;20832;-64
2023/02/20 10:01:08;;;;;;;24.90;18.47;;;5.80;99.90;;;;;;5080328;28;20463;-64
2023/02/20 10:03:44;;;;;;;27.87;21.07;;;5.70;99.90;;;;;;5079876;28;20465;-64
2023/02/20 10:06:17;;;;;;;35.10;20.30;;;5.80;99.90;;;;;;5078935;28;20499;-64
2023/02/20 10:08:44;;;;;;;27.93;21.00;;;5.80;99.90;;;;;;5079877;28;20489;-64
2023/02/20 10:11:23;;;;;;;23.33;18.03;;;5.80;99.90;;;;;;5080092;28;20468;-64
2023/02/20 10:14:02;;;;;;;25.70;19.23;;;5.80;99.90;;;;;;5079125;28;20461;-64
2023/02/20 10:16:39;;;;;;;28.03;18.87;;;5.90;99.90;;;;;;5079434;28;20461;-64
2023/02/20 10:19:18;;;;;;;24.73;17.10;;;5.90;99.90;;;;;;5097089;28;20460;-63
2023/02/20 10:21:56;;;;;;;26.97;19.10;;;6.00;99.90;;;;;;5099753;28;20460;-64
2023/02/20 10:24:45;;;;;;;28.80;19.50;;;6.10;99.90;;;;;;5099995;28;20758;-63
2023/02/20 10:27:25;;;;;;;27.60;18.60;;;6.20;99.90;;;;;;5086649;28;20464;-63
2023/02/20 10:29:54;;;;;;;21.37;18.07;;;6.30;99.90;;;;;;5079849;28;20457;-64
2023/02/20 10:32:28;;;;;;;25.23;18.70;;;6.30;99.90;;;;;;5079504;28;20468;-64
2023/02/20 10:35:03;;;;;;;27.43;18.60;;;6.30;99.90;;;;;;5077157;28;20475;-64
2023/02/20 10:37:37;;;;;;;23.50;17.03;;;6.30;99.90;;;;;;5079274;28;20445;-63
2023/02/20 10:40:11;;;;;;;23.23;18.87;;;6.20;99.90;;;;;;5078683;28;20771;-63
2023/02/20 10:42:46;;;;;;;30.57;19.83;;;6.20;99.90;;;;;;5079065;28;20571;-63
2023/02/20 10:45:20;;;;;;;24.03;17.73;;;6.20;99.90;;;;;;5078662;28;20456;-64
2023/02/20 10:47:52;;;;;;;27.03;18.83;;;6.30;99.90;;;;;;5078984;28;20507;-63
2023/02/20 10:50:24;;;;;;;28.50;19.47;;;6.30;99.90;;;;;;5076629;28;20461;-64
2023/02/20 10:52:57;;;;;;;28.30;19.70;;;6.40;99.90;;;;;;5077638;28;20751;-63
2023/02/20 10:55:28;;;;;;;25.87;19.90;;;6.40;99.90;;;;;;5077293;28;20461;-64
2023/02/20 10:58:02;;;;;;;28.93;18.37;;;6.40;99.90;;;;;;5078226;28;20472;-64
2023/02/20 11:00:33;;;;;;;26.37;19.73;;;6.40;99.90;;;;;;5077301;28;20866;-64
2023/02/20 11:03:07;;;;;;;25.10;19.53;;;6.50;99.90;;;;;;5077827;28;20522;-64
2023/02/20 11:05:41;;;;;;;30.57;18.00;;;6.60;99.90;;;;;;5058234;28;20463;-64
2023/02/20 11:08:08;;;;;;;26.40;17.90;;;6.60;99.90;;;;;;5059306;28;20493;-64
2023/02/20 11:10:37;;;;;;;25.93;18.77;;;6.60;99.90;;;;;;5071065;28;20485;-65
2023/02/20 11:13:12;;;;;;;26.50;17.73;;;6.70;99.90;;;;;;5074551;28;20839;-63
2023/02/20 11:15:43;;;;;;;21.73;17.80;;;6.80;99.90;;;;;;5078740;28;20464;-64
2023/02/20 11:18:20;;;;;;;25.77;18.00;;;6.70;99.90;;;;;;5078527;28;20523;-63
2023/02/20 11:20:49;;;;;;;24.93;17.40;;;6.80;99.90;;;;;;5075235;28;20469;-65
2023/02/20 11:23:39;;;;;;;26.00;18.17;;;6.80;99.90;;;;;;5078705;28;20472;-64
2023/02/20 11:26:30;;;;;;;24.73;17.63;;;6.80;99.90;;;;;;5077520;28;20771;-64
2023/02/20 11:29:05;;;;;;;25.70;19.00;;;6.80;99.90;;;;;;5075634;28;20493;-64
2023/02/20 11:31:34;;;;;;;21.00;18.27;;;6.90;99.90;;;;;;5076590;28;20461;-63
2023/02/20 11:34:03;;;;;;;30.00;19.00;;;7.00;99.90;;;;;;5077715;28;20452;-64
2023/02/20 11:36:37;;;;;;;25.73;17.53;;;7.10;99.90;;;;;;5078577;28;20747;-65
2023/02/20 11:39:24;;;;;;;29.70;19.40;;;7.10;99.90;;;;;;5076672;28;20919;-65
2023/02/20 11:42:11;;;;;;;24.70;17.67;;;7.10;99.90;;;;;;5076636;28;20432;-64
2023/02/20 11:44:39;;;;;;;25.13;17.97;;;7.20;99.90;;;;;;5078104;28;20461;-65
2023/02/20 11:47:22;;;;;;;25.47;17.00;;;7.20;99.90;;;;;;5078656;28;20497;-64
2023/02/20 11:49:50;;;;;;;21.43;15.67;;;7.10;99.90;;;;;;5077092;28;20588;-63
2023/02/20 11:52:20;;;;;;;18.27;14.43;;;7.10;99.90;;;;;;5078107;28;20462;-64
2023/02/20 11:54:48;;;;;;;18.60;15.50;;;7.00;99.90;;;;;;5077290;28;20465;-64
2023/02/20 11:57:25;;;;;;;20.40;16.80;;;7.00;99.90;;;;;;5077950;28;20752;-64
2023/02/20 12:00:11;;;;;;;22.20;15.40;;;7.00;99.90;;;;;;5076638;28;20476;-64
2023/02/20 12:02:49;;;;;;;22.33;16.93;;;7.00;99.90;;;;;;5077889;28;20882;-64
2023/02/20 12:05:16;;;;;;;22.60;16.20;;;7.00;99.90;;;;;;5076452;28;20464;-64
2023/02/20 12:07:55;;;;;;;19.97;15.40;;;7.00;99.90;;;;;;5077034;28;20457;-65
2023/02/20 12:10:35;;;;;;;23.33;16.33;;;7.00;99.90;;;;;;5077175;28;20454;-64
2023/02/20 12:13:04;;;;;;;26.00;17.50;;;7.00;99.90;;;;;;5077360;28;20541;-64
2023/02/20 12:15:33;;;;;;;22.93;16.27;;;7.00;99.90;;;;;;5076466;28;20488;-65
2023/02/20 12:18:33;;;;;;;20.67;15.97;;;7.00;99.90;;;;;;5075069;28;20436;-64
2023/02/20 12:21:10;;;;;;;23.37;16.47;;;7.00;99.90;;;;;;5066463;28;20500;-63
2023/02/20 12:23:50;;;;;;;23.33;15.07;;;7.00;99.90;;;;;;5077074;28;20465;-64
2023/02/20 12:26:34;;;;;;;22.57;16.20;;;7.10;99.90;;;;;;5076821;28;20468;-64
2023/02/20 12:29:12;;;;;;;21.70;15.77;;;7.10;99.90;;;;;;5076628;28;20507;-65
2023/02/20 12:31:54;;;;;;;24.50;15.50;;;7.20;99.90;;;;;;5077758;28;20897;-65
2023/02/20 12:34:41;;;;;;;24.20;15.63;;;7.20;99.90;;;;;;5077464;28;20515;-65
2023/02/20 12:37:17;;;;;;;22.33;16.20;;;7.10;99.90;;;;;;5076784;28;20472;-65
2023/02/20 12:39:57;;;;;;;21.97;16.17;;;7.20;99.90;;;;;;5077518;28;20455;-65
2023/02/20 12:42:32;;;;;;;18.20;14.37;;;7.00;99.90;;;;;;5077380;28;20483;-65
2023/02/20 12:45:17;;;;;;;23.43;17.33;;;6.90;99.90;;;;;;5073970;28;20470;-65
2023/02/20 12:47:45;;;;;;;21.43;15.90;;;7.00;99.90;;;;;;5075063;28;21450;-65
2023/02/20 12:50:42;;;;;;;26.80;18.40;;;7.00;99.90;;;;;;5075148;28;20484;-64
2023/02/20 12:53:26;;;;;;;20.60;15.87;;;7.00;99.90;;;;;;5077970;28;20473;-65
2023/02/20 12:56:06;;;;;;;22.90;17.00;;;7.10;99.90;;;;;;5061008;28;20728;-65
2023/02/20 12:58:41;;;;;;;24.57;17.83;;;7.00;99.90;;;;;;5076951;28;20457;-64
2023/02/20 13:01:12;;;;;;;25.10;16.73;;;7.00;99.90;;;;;;5074322;28;20432;-64
2023/02/20 13:03:51;;;;;;;23.53;16.17;;;7.00;99.90;;;;;;5074202;28;20905;-65
2023/02/20 13:06:27;;;;;;;20.70;15.90;;;7.10;99.90;;;;;;5074092;28;20483;-65
2023/02/20 13:09:06;;;;;;;21.70;16.30;;;7.10;99.90;;;;;;5075607;28;20570;-64
2023/02/20 13:11:40;;;;;;;21.50;15.90;;;7.00;99.90;;;;;;5073050;28;20479;-64